Time;durP1;ratioP1;P1;durP2;ratioP2;P2;SDS_P1;SDS_P2;PMS_P1;PMS_P2;Temp;Humidity;BMP_temperature;BMP_pressure;BME280_temperature;BME280_humidity;BME280_pressure;Samples;Min_cycle;Max_cycle;Signal;HPM_P1;HPM_P2
2022/08/01 00:01:23;;;;;;;1.08;0.73;;;24.10;93.10;;;;;;5006083;28;20203;-76
2022/08/01 00:03:49;;;;;;;1.42;1.00;;;24.10;93.30;;;;;;5002092;28;20206;-75
2022/08/01 00:06:15;;;;;;;1.15;0.80;;;24.10;93.20;;;;;;5006992;28;20182;-77
2022/08/01 00:08:40;;;;;;;1.95;0.80;;;24.10;93.40;;;;;;5003837;28;20187;-76
2022/08/01 00:11:06;;;;;;;2.33;0.73;;;24.10;93.80;;;;;;5008872;28;20665;-77
2022/08/01 00:13:34;;;;;;;1.10;0.98;;;24.10;93.80;;;;;;5007043;28;20255;-78
2022/08/01 00:16:02;;;;;;;0.73;0.60;;;24.10;94.10;;;;;;5005927;28;20230;-75
2022/08/01 00:18:27;;;;;;;1.23;0.93;;;24.00;94.00;;;;;;5026122;28;20199;-71
2022/08/01 00:20:55;;;;;;;1.88;1.05;;;24.00;94.00;;;;;;5007888;28;20286;-77
2022/08/01 00:23:23;;;;;;;1.20;0.80;;;24.00;94.20;;;;;;5005836;28;20200;-76
2022/08/01 00:25:51;;;;;;;1.80;1.00;;;24.00;94.40;;;;;;5001920;28;20187;-73
2022/08/01 00:28:17;;;;;;;0.70;0.70;;;24.00;94.30;;;;;;5006857;28;20185;-77
2022/08/01 00:30:42;;;;;;;1.85;1.00;;;24.00;94.30;;;;;;5008842;28;20274;-78
2022/08/01 00:33:08;;;;;;;2.50;0.82;;;24.00;94.60;;;;;;5007143;28;20188;-77
2022/08/01 00:35:34;;;;;;;0.85;0.73;;;24.00;95.10;;;;;;5003509;28;20191;-78
2022/08/01 00:37:59;;;;;;;1.05;0.80;;;23.90;95.10;;;;;;5004133;28;20218;-77
2022/08/01 00:40:30;;;;;;;0.93;0.70;;;23.90;95.10;;;;;;5000859;28;20202;-77
2022/08/01 00:42:55;;;;;;;1.23;0.70;;;23.90;95.00;;;;;;4999416;28;20199;-77
2022/08/01 00:45:21;;;;;;;0.80;0.70;;;23.90;95.20;;;;;;5005494;28;20197;-77
2022/08/01 00:47:46;;;;;;;1.05;0.70;;;23.90;95.30;;;;;;5005289;28;20191;-78
2022/08/01 00:50:14;;;;;;;1.40;0.88;;;23.90;95.40;;;;;;5002515;28;20303;-77
2022/08/01 00:52:40;;;;;;;1.00;0.70;;;23.90;95.30;;;;;;5005091;28;20198;-77
2022/08/01 00:55:09;;;;;;;1.38;1.10;;;23.90;95.70;;;;;;5006481;28;20191;-77
2022/08/01 00:57:38;;;;;;;0.70;0.70;;;23.90;95.70;;;;;;5006067;28;20180;-75
2022/08/01 01:00:05;;;;;;;0.88;0.75;;;23.90;95.70;;;;;;5005323;28;20206;-79
2022/08/01 01:02:31;;;;;;;1.48;0.90;;;23.90;95.80;;;;;;5008346;28;20465;-78
2022/08/01 01:04:57;;;;;;;1.55;0.60;;;23.90;95.90;;;;;;5003695;28;20179;-78
2022/08/01 01:07:43;;;;;;;2.03;0.80;;;23.90;95.90;;;;;;5007165;28;20237;-78
2022/08/01 01:10:16;;;;;;;1.00;0.80;;;23.90;97.30;;;;;;5012901;28;20240;-79
2022/08/01 01:12:56;;;;;;;1.08;0.90;;;23.90;97.10;;;;;;4999626;28;20182;-76
2022/08/01 01:15:28;;;;;;;1.27;0.85;;;23.90;97.20;;;;;;5005007;28;20524;-77
2022/08/01 01:18:05;;;;;;;2.30;1.00;;;23.80;97.30;;;;;;5003498;28;20186;-78
2022/08/01 01:20:39;;;;;;;1.17;0.90;;;23.80;97.40;;;;;;5006172;28;20187;-77
2022/08/01 01:23:23;;;;;;;1.23;0.80;;;23.80;97.30;;;;;;5002212;28;20191;-78
2022/08/01 01:26:03;;;;;;;1.17;0.88;;;23.70;97.50;;;;;;5009072;28;20243;-77
2022/08/01 01:28:50;;;;;;;1.08;0.80;;;23.70;97.90;;;;;;5003058;28;20202;-78
2022/08/01 01:31:18;;;;;;;1.25;0.90;;;23.70;97.60;;;;;;5007945;28;20194;-77
2022/08/01 01:33:48;;;;;;;1.08;0.90;;;23.70;97.60;;;;;;4997396;28;20193;-79
2022/08/01 01:36:17;;;;;;;0.98;0.88;;;23.60;97.60;;;;;;5006473;28;20199;-79
2022/08/01 01:38:45;;;;;;;1.23;0.90;;;23.60;97.80;;;;;;5004233;28;20349;-78
2022/08/01 01:41:16;;;;;;;2.05;0.95;;;23.60;98.30;;;;;;4998116;28;20182;-77
2022/08/01 01:43:45;;;;;;;1.10;0.73;;;23.60;98.50;;;;;;5000253;28;20181;-79
2022/08/01 01:46:15;;;;;;;1.17;0.90;;;23.60;98.40;;;;;;5006591;28;20180;-80
2022/08/01 01:48:44;;;;;;;3.70;1.00;;;23.50;98.90;;;;;;5006392;28;20195;-78
2022/08/01 01:51:13;;;;;;;1.40;0.90;;;23.50;99.70;;;;;;4985087;28;20183;-79
2022/08/01 01:53:43;;;;;;;2.53;1.15;;;23.50;99.40;;;;;;4998183;28;20179;-80
2022/08/01 01:56:09;;;;;;;1.45;1.10;;;23.50;99.90;;;;;;5000295;28;20298;-77
2022/08/01 01:58:39;;;;;;;1.08;0.80;;;23.50;99.90;;;;;;5003071;28;20217;-77
2022/08/01 02:01:08;;;;;;;1.40;1.00;;;23.40;99.90;;;;;;4999693;28;20222;-79
2022/08/01 02:03:36;;;;;;;1.13;0.90;;;23.40;99.90;;;;;;4997427;28;20242;-77
2022/08/01 02:06:03;;;;;;;1.63;1.20;;;23.40;99.90;;;;;;5002661;28;20275;-79
2022/08/01 02:08:33;;;;;;;1.95;0.90;;;23.40;99.90;;;;;;4999563;28;20188;-78
2022/08/01 02:11:19;;;;;;;0.98;0.82;;;23.30;99.90;;;;;;4998932;28;20334;-77
2022/08/01 02:14:04;;;;;;;1.42;1.00;;;23.30;99.90;;;;;;5006729;28;20652;-79
2022/08/01 02:16:34;;;;;;;1.10;0.80;;;23.30;99.90;;;;;;5016814;28;20199;-76
2022/08/01 02:19:02;;;;;;;1.33;0.73;;;23.30;99.90;;;;;;4999116;28;20196;-70
2022/08/01 02:21:38;;;;;;;1.75;1.00;;;23.20;99.90;;;;;;5009577;28;20196;-76
2022/08/01 02:24:16;;;;;;;3.22;0.95;;;23.20;99.90;;;;;;5003957;28;20203;-77
2022/08/01 02:26:50;;;;;;;1.35;0.90;;;23.20;99.90;;;;;;5001054;28;20238;-78
2022/08/01 02:29:33;;;;;;;1.52;0.98;;;23.20;99.90;;;;;;4998071;28;20226;-80
2022/08/01 02:32:01;;;;;;;1.10;0.90;;;23.20;99.90;;;;;;5003008;28;20240;-79
2022/08/01 02:34:31;;;;;;;1.42;0.90;;;23.20;99.90;;;;;;5002587;28;20370;-74
2022/08/01 02:37:00;;;;;;;1.52;0.80;;;23.10;99.90;;;;;;5003614;28;20199;-78
2022/08/01 02:39:28;;;;;;;1.02;0.80;;;23.10;99.90;;;;;;4992053;28;20213;-78
2022/08/01 02:42:03;;;;;;;2.25;1.00;;;23.10;99.90;;;;;;5001267;28;20174;-81
2022/08/01 02:44:32;;;;;;;3.58;1.10;;;23.10;99.90;;;;;;5001375;28;20167;-78
2022/08/01 02:47:02;;;;;;;1.48;1.20;;;23.10;99.90;;;;;;5007290;28;20276;-71
2022/08/01 02:49:35;;;;;;;1.40;1.00;;;23.10;99.90;;;;;;5013993;28;20207;-77
2022/08/01 02:52:07;;;;;;;1.83;0.95;;;23.10;99.90;;;;;;5015035;28;20279;-75
2022/08/01 02:54:35;;;;;;;1.85;1.23;;;23.10;99.90;;;;;;5015350;28;20198;-72
2022/08/01 02:57:07;;;;;;;1.92;1.20;;;23.00;99.90;;;;;;5014154;28;20222;-76
2022/08/01 02:59:38;;;;;;;1.08;0.90;;;23.00;99.90;;;;;;5012818;28;20203;-73
2022/08/01 03:02:06;;;;;;;1.05;0.90;;;23.00;99.90;;;;;;5016540;28;20186;-75
2022/08/01 03:04:35;;;;;;;0.80;0.70;;;23.00;99.90;;;;;;5010603;28;20252;-75
2022/08/01 03:07:07;;;;;;;1.17;0.77;;;23.00;99.90;;;;;;5013360;28;20249;-75
2022/08/01 03:09:38;;;;;;;1.33;1.00;;;23.00;99.90;;;;;;5014695;28;20194;-68
2022/08/01 03:12:09;;;;;;;1.77;0.90;;;22.90;99.90;;;;;;5014808;28;20214;-69
2022/08/01 03:14:40;;;;;;;1.08;0.80;;;22.90;99.90;;;;;;5009718;28;20194;-73
2022/08/01 03:17:08;;;;;;;1.85;1.00;;;22.90;99.90;;;;;;5014496;28;20262;-69
2022/08/01 03:19:38;;;;;;;1.00;0.90;;;22.90;99.90;;;;;;5013640;28;20268;-72
2022/08/01 03:22:07;;;;;;;1.63;0.98;;;22.90;99.90;;;;;;5018295;28;20192;-69
2022/08/01 03:24:35;;;;;;;1.08;0.70;;;22.90;99.90;;;;;;5014877;28;20203;-76
2022/08/01 03:27:03;;;;;;;1.77;1.00;;;22.90;99.90;;;;;;5013854;28;20226;-69
2022/08/01 03:29:31;;;;;;;1.13;0.90;;;22.90;99.90;;;;;;5012452;28;20188;-69
2022/08/01 03:31:59;;;;;;;0.90;0.70;;;22.90;99.90;;;;;;5016364;28;20202;-68
2022/08/01 03:34:28;;;;;;;1.35;1.00;;;22.90;99.90;;;;;;5015618;28;20184;-74
2022/08/01 03:37:02;;;;;;;1.00;0.90;;;22.90;99.90;;;;;;5019262;28;20168;-73
2022/08/01 03:39:42;;;;;;;1.45;1.00;;;22.90;99.90;;;;;;5017631;28;20213;-71
2022/08/01 03:42:15;;;;;;;2.28;1.40;;;22.90;99.90;;;;;;5034251;28;20209;-76
2022/08/01 03:44:46;;;;;;;1.73;1.20;;;22.90;99.90;;;;;;5013546;28;20241;-75
2022/08/01 03:47:16;;;;;;;1.40;1.17;;;22.90;99.90;;;;;;5020642;28;20196;-71
2022/08/01 03:49:44;;;;;;;1.77;1.23;;;22.90;99.90;;;;;;5023222;28;20175;-69
2022/08/01 03:52:11;;;;;;;1.30;1.05;;;22.90;99.90;;;;;;5029848;28;20215;-69
2022/08/01 03:54:41;;;;;;;1.33;1.10;;;22.90;99.90;;;;;;5013260;28;20195;-72
2022/08/01 03:57:08;;;;;;;1.02;0.93;;;22.90;99.90;;;;;;5016815;28;20295;-67
2022/08/01 03:59:38;;;;;;;2.55;1.30;;;22.90;99.90;;;;;;5010004;28;20395;-75
2022/08/01 04:02:06;;;;;;;2.33;1.80;;;22.80;99.90;;;;;;5003388;28;20205;-80
2022/08/01 04:04:32;;;;;;;1.85;1.38;;;22.80;99.90;;;;;;5007101;28;20211;-67
2022/08/01 04:07:03;;;;;;;1.40;1.15;;;22.80;99.90;;;;;;5015940;28;20217;-67
2022/08/01 04:09:32;;;;;;;1.58;1.40;;;22.80;99.90;;;;;;5014014;28;20187;-76
2022/08/01 04:12:00;;;;;;;1.90;1.40;;;22.80;99.90;;;;;;5013265;28;20195;-73
2022/08/01 04:14:27;;;;;;;1.65;1.30;;;22.80;99.90;;;;;;5016751;28;20186;-76
2022/08/01 04:16:55;;;;;;;1.75;1.30;;;22.80;99.90;;;;;;5010396;28;20290;-72
2022/08/01 04:19:21;;;;;;;2.67;1.33;;;22.80;99.90;;;;;;5029291;28;20222;-76
2022/08/01 04:21:47;;;;;;;2.00;1.27;;;22.80;99.90;;;;;;5012088;28;20294;-73
2022/08/01 04:24:18;;;;;;;1.77;1.40;;;22.80;99.90;;;;;;5011635;28;20459;-67
2022/08/01 04:26:46;;;;;;;1.70;1.27;;;22.80;99.90;;;;;;5013715;28;20172;-70
2022/08/01 04:29:14;;;;;;;1.52;1.23;;;22.80;99.90;;;;;;5016105;28;20180;-78
2022/08/01 04:31:42;;;;;;;2.17;1.50;;;22.80;99.90;;;;;;5017846;28;20243;-79
2022/08/01 04:34:14;;;;;;;3.10;1.30;;;22.70;99.90;;;;;;5015772;28;20191;-78
2022/08/01 04:36:44;;;;;;;2.20;1.50;;;22.80;99.90;;;;;;5017549;28;20195;-73
2022/08/01 04:39:11;;;;;;;1.75;1.50;;;22.80;99.90;;;;;;5008129;28;20199;-75
2022/08/01 04:41:38;;;;;;;1.58;1.35;;;22.80;99.90;;;;;;5007514;28;20172;-79
2022/08/01 04:44:07;;;;;;;1.77;1.50;;;22.80;99.90;;;;;;5003986;28;20182;-80
2022/08/01 04:46:34;;;;;;;2.47;1.65;;;22.80;99.90;;;;;;5019635;28;20252;-81
2022/08/01 04:49:02;;;;;;;3.63;1.67;;;22.80;99.90;;;;;;5010036;28;20187;-77
2022/08/01 04:51:28;;;;;;;1.90;1.40;;;22.90;99.90;;;;;;5001036;28;20189;-81
2022/08/01 04:53:53;;;;;;;2.50;1.58;;;22.90;99.90;;;;;;5000161;28;20274;-79
2022/08/01 04:56:22;;;;;;;2.95;1.60;;;22.90;99.90;;;;;;5004997;28;20278;-79
2022/08/01 04:59:39;;;;;;;1.80;1.52;;;22.90;99.90;;;;;;5011618;28;20207;-77
2022/08/01 05:01:34;;;;;;;2.80;1.60;;;22.90;99.90;;;;;;5006125;28;20339;-80
2022/08/01 05:03:59;;;;;;;2.20;1.35;;;22.90;99.90;;;;;;5001011;28;20804;-82
2022/08/01 05:06:25;;;;;;;2.28;1.58;;;22.90;99.90;;;;;;5010898;28;20259;-79
2022/08/01 05:08:50;;;;;;;1.95;1.48;;;22.90;99.90;;;;;;5010596;28;20180;-79
2022/08/01 05:11:16;;;;;;;3.05;2.10;;;22.90;99.90;;;;;;5016047;28;20195;-76
2022/08/01 05:13:44;;;;;;;2.22;1.90;;;22.90;99.90;;;;;;5020090;28;20207;-69
2022/08/01 05:16:14;;;;;;;1.83;1.70;;;22.90;99.90;;;;;;5019263;28;20183;-71
2022/08/01 05:18:47;;;;;;;1.92;1.70;;;23.00;99.90;;;;;;5019859;28;20209;-72
2022/08/01 05:21:14;;;;;;;2.03;1.80;;;23.00;99.90;;;;;;5017641;28;20212;-74
2022/08/01 05:23:40;;;;;;;3.05;1.88;;;23.00;99.90;;;;;;5015984;28;20193;-70
2022/08/01 05:26:06;;;;;;;1.85;1.65;;;23.00;99.90;;;;;;5019017;28;20190;-70
2022/08/01 05:28:31;;;;;;;3.50;2.13;;;23.00;99.90;;;;;;5021659;28;20213;-66
2022/08/01 05:30:59;;;;;;;2.10;1.90;;;23.00;99.90;;;;;;5020072;28;20191;-70
2022/08/01 05:33:27;;;;;;;3.15;2.17;;;23.00;99.90;;;;;;5018740;28;20176;-70
2022/08/01 05:35:57;;;;;;;4.18;2.40;;;23.00;99.90;;;;;;5018642;28;20226;-67
2022/08/01 05:38:27;;;;;;;3.63;2.22;;;23.10;99.90;;;;;;5018572;28;20253;-71
2022/08/01 05:40:53;;;;;;;4.32;2.50;;;23.00;99.90;;;;;;5019749;28;20174;-70
2022/08/01 05:43:18;;;;;;;3.58;2.40;;;23.10;99.90;;;;;;5022699;28;20207;-70
2022/08/01 05:45:45;;;;;;;3.85;2.72;;;23.10;99.90;;;;;;5018967;28;20195;-71
2022/08/01 05:48:16;;;;;;;3.95;3.08;;;23.10;99.90;;;;;;5017127;28;20177;-72
2022/08/01 05:50:44;;;;;;;4.13;2.92;;;23.10;99.90;;;;;;5017539;28;20167;-72
2022/08/01 05:53:12;;;;;;;4.88;3.20;;;23.00;99.90;;;;;;5016928;28;20183;-69
2022/08/01 05:55:38;;;;;;;4.53;2.80;;;23.00;99.90;;;;;;5021188;28;20191;-69
2022/08/01 05:58:06;;;;;;;4.32;2.75;;;23.00;99.90;;;;;;5016283;28;20203;-70
2022/08/01 06:00:34;;;;;;;3.30;2.60;;;23.00;99.90;;;;;;5018070;28;20218;-71
2022/08/01 06:02:59;;;;;;;5.13;3.28;;;23.00;99.90;;;;;;5022406;28;20192;-72
2022/08/01 06:05:25;;;;;;;3.20;2.47;;;23.00;99.90;;;;;;5016702;28;20198;-73
2022/08/01 06:07:53;;;;;;;8.30;2.85;;;23.00;99.90;;;;;;5015530;28;20183;-72
2022/08/01 06:10:22;;;;;;;4.07;2.75;;;23.00;99.90;;;;;;5018132;28;20219;-71
2022/08/01 06:12:47;;;;;;;4.38;3.20;;;23.00;99.90;;;;;;5015899;28;20183;-73
2022/08/01 06:15:15;;;;;;;3.95;2.65;;;23.00;99.90;;;;;;5015789;28;20214;-73
2022/08/01 06:17:43;;;;;;;4.25;2.90;;;23.00;99.90;;;;;;5017940;28;20190;-74
2022/08/01 06:20:14;;;;;;;4.30;3.17;;;23.00;99.90;;;;;;5019440;28;20258;-71
2022/08/01 06:22:39;;;;;;;4.13;3.53;;;23.00;99.90;;;;;;5014507;28;20197;-73
2022/08/01 06:25:06;;;;;;;4.22;3.10;;;23.00;99.90;;;;;;5014130;28;20203;-71
2022/08/01 06:27:34;;;;;;;4.20;3.10;;;23.00;99.90;;;;;;5016176;28;20278;-72
2022/08/01 06:30:00;;;;;;;5.18;2.80;;;23.00;99.90;;;;;;5018550;28;20198;-72
2022/08/01 06:32:26;;;;;;;3.80;2.88;;;23.00;99.90;;;;;;5018830;28;20219;-70
2022/08/01 06:34:52;;;;;;;4.28;3.10;;;23.10;99.90;;;;;;5019092;28;20186;-73
2022/08/01 06:37:18;;;;;;;5.47;2.70;;;23.10;99.90;;;;;;5017752;28;20207;-72
2022/08/01 06:39:43;;;;;;;3.05;2.42;;;23.10;99.90;;;;;;5015640;28;20225;-72
2022/08/01 06:42:11;;;;;;;4.85;2.78;;;23.20;99.90;;;;;;5018668;28;20262;-72
2022/08/01 06:44:37;;;;;;;3.67;2.80;;;23.20;99.90;;;;;;5017857;28;20214;-70
2022/08/01 06:47:03;;;;;;;5.07;3.10;;;23.20;99.90;;;;;;5015050;28;20191;-70
2022/08/01 06:49:30;;;;;;;4.88;3.00;;;23.20;99.90;;;;;;5017322;28;20190;-72
2022/08/01 06:51:56;;;;;;;5.63;2.95;;;23.30;99.90;;;;;;5016686;28;20194;-72
2022/08/01 06:54:22;;;;;;;2.88;2.60;;;23.30;99.90;;;;;;5019387;28;20210;-72
2022/08/01 06:56:52;;;;;;;5.15;3.40;;;23.30;99.90;;;;;;5019109;28;20198;-74
2022/08/01 06:59:17;;;;;;;3.15;2.67;;;23.30;99.90;;;;;;5018180;28;20260;-73
2022/08/01 07:01:46;;;;;;;4.60;3.17;;;23.40;99.90;;;;;;5017272;28;20267;-69
2022/08/01 07:04:11;;;;;;;4.53;3.50;;;23.40;99.90;;;;;;5015816;28;20241;-73
2022/08/01 07:06:39;;;;;;;4.57;3.30;;;23.40;99.90;;;;;;5019294;28;20183;-74
2022/08/01 07:09:07;;;;;;;4.93;3.30;;;23.40;99.90;;;;;;5017485;28;20182;-71
2022/08/01 07:11:32;;;;;;;4.95;3.20;;;23.50;99.90;;;;;;5018675;28;20179;-72
2022/08/01 07:13:58;;;;;;;3.67;2.58;;;23.50;99.90;;;;;;5019894;28;20224;-74
2022/08/01 07:16:24;;;;;;;4.60;3.47;;;23.60;99.90;;;;;;5016279;28;20183;-70
2022/08/01 07:18:52;;;;;;;5.63;3.20;;;23.60;99.90;;;;;;5015923;28;20211;-67
2022/08/01 07:21:18;;;;;;;3.10;2.53;;;23.60;99.90;;;;;;5017330;28;20195;-70
2022/08/01 07:23:43;;;;;;;3.80;3.20;;;23.60;99.90;;;;;;5015956;28;20187;-73
2022/08/01 07:26:13;;;;;;;6.90;3.75;;;23.60;99.90;;;;;;5017697;28;20210;-70
2022/08/01 07:28:38;;;;;;;5.07;3.83;;;23.70;99.90;;;;;;5013987;28;20187;-71
2022/08/01 07:31:06;;;;;;;4.43;3.70;;;23.60;99.90;;;;;;5014127;28;20214;-70
2022/08/01 07:33:32;;;;;;;4.63;3.70;;;23.70;99.90;;;;;;5015583;28;20182;-71
2022/08/01 07:36:05;;;;;;;5.45;3.88;;;23.60;99.90;;;;;;5008104;28;20179;-70
2022/08/01 07:38:30;;;;;;;6.25;4.22;;;23.60;99.90;;;;;;5019603;28;20200;-70
2022/08/01 07:40:56;;;;;;;5.30;4.10;;;23.70;99.90;;;;;;5021061;28;20287;-67
2022/08/01 07:43:22;;;;;;;4.18;3.42;;;23.70;99.90;;;;;;5003255;28;20176;-69
2022/08/01 07:45:47;;;;;;;5.07;3.70;;;23.60;99.90;;;;;;5008485;28;20204;-71
2022/08/01 07:48:15;;;;;;;3.92;3.30;;;23.70;99.90;;;;;;5016729;28;20191;-73
2022/08/01 07:50:41;;;;;;;4.55;3.40;;;23.80;99.90;;;;;;5001084;28;20203;-70
2022/08/01 07:53:07;;;;;;;4.32;3.58;;;23.90;99.90;;;;;;5003200;28;20208;-71
2022/08/01 07:55:32;;;;;;;5.05;3.90;;;24.00;99.90;;;;;;5005476;28;20199;-70
2022/08/01 07:57:58;;;;;;;3.75;3.05;;;24.10;99.90;;;;;;5004989;28;20190;-71
2022/08/01 08:00:27;;;;;;;5.38;3.58;;;24.20;99.90;;;;;;5001310;28;20231;-73
2022/08/01 08:02:53;;;;;;;4.22;3.20;;;24.30;99.90;;;;;;5018183;28;20176;-70
2022/08/01 08:05:19;;;;;;;3.22;2.90;;;24.30;99.90;;;;;;5004951;28;20179;-67
2022/08/01 08:07:45;;;;;;;3.88;2.90;;;24.30;99.90;;;;;;5003813;28;20186;-71
2022/08/01 08:10:15;;;;;;;4.55;3.38;;;24.30;99.90;;;;;;5006588;28;20187;-70
2022/08/01 08:12:43;;;;;;;3.65;3.03;;;24.30;99.90;;;;;;5002424;28;20192;-71
2022/08/01 08:15:11;;;;;;;2.92;2.55;;;24.40;99.90;;;;;;5012434;28;20175;-70
2022/08/01 08:17:39;;;;;;;3.05;2.75;;;24.40;99.90;;;;;;4996596;28;20180;-70
2022/08/01 08:20:07;;;;;;;4.38;2.67;;;24.40;99.90;;;;;;5018285;28;20212;-71
2022/08/01 08:22:35;;;;;;;3.40;2.75;;;24.40;99.90;;;;;;5021515;28;20179;-69
2022/08/01 08:25:03;;;;;;;4.07;2.80;;;24.40;99.90;;;;;;5023250;28;20180;-73
2022/08/01 08:27:30;;;;;;;2.97;2.63;;;24.50;99.90;;;;;;5003600;28;20179;-72
2022/08/01 08:29:55;;;;;;;3.28;2.67;;;24.50;99.90;;;;;;5034400;28;20171;-72
2022/08/01 08:32:21;;;;;;;3.50;2.47;;;24.60;99.90;;;;;;5011698;28;20282;-70
2022/08/01 08:34:49;;;;;;;3.35;2.85;;;24.70;99.90;;;;;;5018330;28;20202;-73
2022/08/01 08:37:14;;;;;;;2.97;2.55;;;24.80;99.90;;;;;;5019708;28;20205;-73
2022/08/01 08:39:42;;;;;;;3.60;2.60;;;24.90;99.90;;;;;;5021030;28;20215;-67
2022/08/01 08:42:10;;;;;;;4.18;2.67;;;25.00;99.90;;;;;;5018983;28;20225;-71
2022/08/01 08:44:38;;;;;;;2.83;2.53;;;25.00;99.90;;;;;;5019644;28;20261;-70
2022/08/01 08:47:07;;;;;;;4.70;2.60;;;25.00;99.90;;;;;;5020049;28;20194;-70
2022/08/01 08:49:34;;;;;;;3.95;2.63;;;25.00;99.90;;;;;;5020561;28;20311;-69
2022/08/01 08:52:06;;;;;;;2.80;2.50;;;25.00;99.90;;;;;;5021485;28;20198;-72
2022/08/01 08:54:33;;;;;;;3.13;2.30;;;25.10;99.90;;;;;;5021198;28;20195;-71
2022/08/01 08:57:01;;;;;;;2.25;2.05;;;25.10;99.90;;;;;;5021840;28;20281;-70
2022/08/01 08:59:30;;;;;;;2.70;2.30;;;25.10;99.90;;;;;;5021842;28;20509;-73
2022/08/01 09:01:57;;;;;;;2.78;2.05;;;25.20;99.90;;;;;;5020569;28;20185;-72
2022/08/01 09:04:26;;;;;;;2.80;2.17;;;25.20;99.90;;;;;;5020327;28;20203;-69
2022/08/01 09:06:52;;;;;;;2.80;1.92;;;25.20;99.90;;;;;;5031903;28;20223;-73
2022/08/01 09:09:20;;;;;;;2.33;1.90;;;25.20;99.90;;;;;;5017449;28;20179;-74
2022/08/01 09:11:46;;;;;;;5.40;1.88;;;25.20;99.90;;;;;;5021463;28;20413;-71
2022/08/01 09:14:29;;;;;;;1.77;1.65;;;25.30;99.90;;;;;;5016772;28;20211;-68
2022/08/01 09:17:08;;;;;;;2.90;1.90;;;25.40;99.90;;;;;;5018608;28;20259;-71
2022/08/01 09:19:40;;;;;;;2.20;1.85;;;25.50;99.90;;;;;;5019071;28;20242;-73
2022/08/01 09:22:11;;;;;;;2.63;2.08;;;25.60;99.90;;;;;;5018342;28;20170;-68
2022/08/01 09:24:37;;;;;;;2.35;1.70;;;25.70;99.90;;;;;;5021279;28;20179;-70
2022/08/01 09:27:25;;;;;;;2.90;2.20;;;25.70;99.90;;;;;;5018935;28;20238;-70
2022/08/01 09:29:54;;;;;;;3.25;2.05;;;25.70;99.90;;;;;;5020244;28;20186;-69
2022/08/01 09:32:22;;;;;;;3.30;2.03;;;25.70;99.90;;;;;;5020051;28;20309;-73
2022/08/01 09:34:48;;;;;;;1.90;1.77;;;25.70;99.90;;;;;;5018225;28;20198;-72
2022/08/01 09:37:17;;;;;;;2.50;1.80;;;25.80;99.90;;;;;;5019217;28;20188;-71
2022/08/01 09:39:57;;;;;;;1.83;1.60;;;25.90;99.90;;;;;;5019577;28;20311;-74
2022/08/01 09:42:29;;;;;;;2.20;2.00;;;26.10;99.90;;;;;;5019091;28;20182;-70
2022/08/01 09:44:55;;;;;;;1.92;1.70;;;26.20;99.90;;;;;;5019295;28;20167;-69
2022/08/01 09:47:21;;;;;;;2.25;1.70;;;26.40;99.90;;;;;;5037703;28;20213;-71
2022/08/01 09:49:59;;;;;;;1.75;1.63;;;26.50;99.90;;;;;;5020249;28;20214;-70
2022/08/01 09:52:27;;;;;;;2.78;1.92;;;26.50;99.90;;;;;;5020694;28;20179;-73
2022/08/01 09:54:55;;;;;;;2.20;1.67;;;26.60;99.90;;;;;;5017972;28;20197;-72
2022/08/01 09:57:21;;;;;;;2.00;1.70;;;26.50;99.90;;;;;;5020917;28;20174;-71
2022/08/01 09:59:49;;;;;;;3.70;1.77;;;26.60;99.90;;;;;;5018759;28;20198;-70
2022/08/01 10:02:37;;;;;;;2.30;1.70;;;26.60;99.90;;;;;;5020737;28;20195;-68
2022/08/01 10:05:10;;;;;;;1.55;1.42;;;26.70;99.90;;;;;;5022210;28;20202;-70
2022/08/01 10:07:55;;;;;;;2.00;1.45;;;26.80;99.90;;;;;;5018948;28;20210;-70
2022/08/01 10:10:24;;;;;;;1.65;1.55;;;26.80;99.90;;;;;;5004957;28;20198;-69
2022/08/01 10:12:52;;;;;;;1.90;1.52;;;26.80;99.90;;;;;;5020123;28;20170;-68
2022/08/01 10:15:20;;;;;;;1.70;1.48;;;26.90;99.90;;;;;;5020760;28;20195;-70
2022/08/01 10:18:08;;;;;;;1.50;1.38;;;27.00;99.90;;;;;;5021805;28;20267;-69
2022/08/01 10:20:34;;;;;;;1.80;1.60;;;27.00;99.90;;;;;;5019890;28;20290;-74
2022/08/01 10:23:04;;;;;;;2.97;1.70;;;27.10;99.90;;;;;;5020548;28;20198;-71
2022/08/01 10:25:39;;;;;;;1.90;1.70;;;27.30;99.90;;;;;;5020052;28;20172;-73
2022/08/01 10:28:18;;;;;;;2.13;1.92;;;27.40;99.90;;;;;;5019823;28;20237;-73
2022/08/01 10:30:45;;;;;;;2.47;2.05;;;27.60;99.90;;;;;;5018894;28;20170;-68
2022/08/01 10:33:11;;;;;;;2.72;2.08;;;27.70;99.90;;;;;;5018191;28;20195;-69
2022/08/01 10:35:41;;;;;;;2.33;2.05;;;27.80;99.90;;;;;;5019960;28;20192;-73
2022/08/01 10:38:10;;;;;;;2.38;2.17;;;27.90;99.90;;;;;;5019403;28;20207;-70
2022/08/01 10:40:39;;;;;;;2.33;1.98;;;27.90;99.90;;;;;;5019300;28;20230;-71
2022/08/01 10:43:05;;;;;;;2.75;2.03;;;27.90;99.90;;;;;;5018804;28;20165;-71
2022/08/01 10:45:30;;;;;;;2.70;2.20;;;27.80;99.90;;;;;;5019732;28;20183;-73
2022/08/01 10:48:20;;;;;;;3.42;2.65;;;27.70;99.90;;;;;;5020540;28;20227;-70
2022/08/01 10:50:49;;;;;;;3.45;2.97;;;27.50;99.90;;;;;;5019272;28;20211;-70
2022/08/01 10:53:23;;;;;;;3.20;2.40;;;27.50;99.90;;;;;;5017815;28;20191;-70
2022/08/01 10:55:58;;;;;;;2.33;2.13;;;27.40;99.90;;;;;;5014264;28;20221;-71
2022/08/01 10:58:36;;;;;;;3.60;2.40;;;27.50;99.90;;;;;;5023470;28;20182;-70
2022/08/01 11:01:21;;;;;;;2.70;2.40;;;27.60;99.90;;;;;;5013148;28;20219;-71
2022/08/01 11:03:59;;;;;;;3.17;1.80;;;27.80;99.90;;;;;;5015323;28;20183;-68
2022/08/01 11:06:34;;;;;;;1.90;1.70;;;28.00;99.90;;;;;;5015298;28;20171;-71
2022/08/01 11:09:20;;;;;;;1.83;1.63;;;28.30;99.90;;;;;;5013697;28;20229;-70
2022/08/01 11:12:11;;;;;;;1.67;1.50;;;28.60;99.90;;;;;;5014277;28;20194;-70
2022/08/01 11:14:59;;;;;;;2.58;1.80;;;29.00;99.90;;;;;;5006619;28;20222;-71
2022/08/01 11:17:34;;;;;;;1.80;1.50;;;29.20;99.90;;;;;;5018964;28;20186;-70
2022/08/01 11:20:16;;;;;;;1.90;1.80;;;29.40;99.60;;;;;;5016548;28;20198;-71
2022/08/01 11:23:05;;;;;;;2.22;1.75;;;29.50;99.50;;;;;;5008431;28;20279;-69
2022/08/01 11:25:36;;;;;;;2.40;1.52;;;29.50;98.90;;;;;;5011155;28;20249;-71
2022/08/01 11:28:23;;;;;;;2.00;1.80;;;29.40;98.70;;;;;;5023547;28;20203;-70
2022/08/01 11:30:54;;;;;;;1.88;1.77;;;29.20;98.50;;;;;;5020121;28;20188;-70
2022/08/01 11:33:40;;;;;;;1.70;1.60;;;29.10;98.90;;;;;;5020399;28;20162;-71
2022/08/01 11:36:17;;;;;;;1.95;1.73;;;29.10;98.50;;;;;;5016492;28;20421;-69
2022/08/01 11:38:51;;;;;;;3.17;1.67;;;29.20;98.70;;;;;;5022316;28;20256;-71
2022/08/01 11:41:21;;;;;;;2.13;1.90;;;29.50;99.20;;;;;;5011240;28;20213;-70
2022/08/01 11:44:09;;;;;;;2.15;1.95;;;29.60;98.80;;;;;;5019478;28;20274;-72
2022/08/01 11:46:47;;;;;;;1.60;1.50;;;29.70;97.80;;;;;;5015243;28;20183;-71
2022/08/01 11:49:33;;;;;;;2.00;1.70;;;29.70;95.20;;;;;;5017972;28;20254;-71
2022/08/01 11:52:18;;;;;;;2.78;1.80;;;29.60;96.20;;;;;;5017358;28;20179;-69
2022/08/01 11:54:56;;;;;;;2.88;2.13;;;29.30;95.50;;;;;;5019568;28;20230;-70
2022/08/01 11:57:30;;;;;;;2.80;2.20;;;29.10;95.90;;;;;;5018379;28;20203;-71
2022/08/01 11:59:59;;;;;;;4.85;2.17;;;28.80;95.60;;;;;;5021209;28;20215;-71
2022/08/01 12:02:35;;;;;;;2.35;2.15;;;28.50;95.60;;;;;;5019695;28;20199;-72
2022/08/01 12:05:09;;;;;;;3.38;2.08;;;28.30;95.70;;;;;;5020465;28;20170;-69
2022/08/01 12:07:36;;;;;;;2.28;1.90;;;28.10;95.60;;;;;;5020391;28;20362;-71
2022/08/01 12:10:05;;;;;;;2.10;1.85;;;27.90;96.20;;;;;;5015023;28;20191;-70
2022/08/01 12:12:32;;;;;;;3.88;2.03;;;27.80;96.20;;;;;;5027159;28;20206;-70
2022/08/01 12:15:01;;;;;;;3.58;2.13;;;27.70;96.60;;;;;;5015649;28;20223;-72
2022/08/01 12:17:35;;;;;;;2.30;1.92;;;27.80;96.70;;;;;;5023801;28;20198;-72
2022/08/01 12:20:04;;;;;;;2.70;2.25;;;27.80;96.50;;;;;;5019589;28;20193;-71
2022/08/01 12:22:30;;;;;;;2.70;2.15;;;27.90;96.70;;;;;;5020425;28;20215;-71
2022/08/01 12:25:04;;;;;;;2.97;2.05;;;27.90;96.80;;;;;;5017602;28;20209;-72
2022/08/01 12:27:32;;;;;;;2.28;2.08;;;28.00;96.90;;;;;;5019123;28;20191;-68
2022/08/01 12:30:01;;;;;;;3.83;2.42;;;28.10;97.10;;;;;;5019424;28;20187;-69
2022/08/01 12:32:32;;;;;;;2.63;2.20;;;28.10;97.00;;;;;;5021193;28;20179;-70
2022/08/01 12:35:23;;;;;;;2.83;2.10;;;28.20;97.00;;;;;;5018024;28;20237;-70
2022/08/01 12:37:59;;;;;;;2.53;2.17;;;28.30;96.40;;;;;;5008151;28;20222;-70
2022/08/01 12:40:42;;;;;;;3.08;1.88;;;28.40;96.50;;;;;;5017661;28;20207;-71
2022/08/01 12:43:09;;;;;;;2.72;1.90;;;28.40;96.10;;;;;;5018012;28;21147;-70
2022/08/01 12:45:42;;;;;;;3.97;2.13;;;28.40;96.30;;;;;;5020460;28;20214;-70
2022/08/01 12:48:13;;;;;;;2.72;1.85;;;28.40;96.00;;;;;;5021312;28;20207;-71
2022/08/01 12:50:42;;;;;;;2.25;1.83;;;28.50;96.30;;;;;;5036732;28;20209;-71
2022/08/01 12:53:09;;;;;;;2.20;1.67;;;28.50;96.40;;;;;;5021971;28;20218;-69
2022/08/01 12:55:45;;;;;;;2.33;1.88;;;28.70;96.30;;;;;;5018317;28;21094;-69
2022/08/01 12:58:15;;;;;;;2.10;1.73;;;28.70;95.40;;;;;;5026724;28;20188;-71
2022/08/01 13:00:44;;;;;;;1.70;1.58;;;28.80;95.40;;;;;;5018253;28;20190;-70
2022/08/01 13:03:12;;;;;;;2.63;1.85;;;28.70;94.80;;;;;;5019331;28;20261;-70